Time;durP1;ratioP1;P1;durP2;ratioP2;P2;SDS_P1;SDS_P2;PMS_P1;PMS_P2;Temp;Humidity;BMP_temperature;BMP_pressure;BME280_temperature;BME280_humidity;BME280_pressure;Samples;Min_cycle;Max_cycle;Signal;HPM_P1;HPM_P2
2024/01/23 00:02:23;;;;;;;4.65;3.13;;;5.90;99.90;;;;;;4963292;28;20062;-74
2024/01/23 00:04:48;;;;;;;5.03;1.33;;;5.90;99.90;;;;;;4963769;28;20055;-74
2024/01/23 00:07:14;;;;;;;3.95;1.88;;;5.90;99.90;;;;;;4943489;29;20449;-74
2024/01/23 00:09:39;;;;;;;4.32;1.90;;;5.90;99.90;;;;;;4943767;29;20067;-74
2024/01/23 00:12:07;;;;;;;3.60;1.92;;;5.90;99.90;;;;;;4944804;28;20466;-74
2024/01/23 00:14:33;;;;;;;4.28;2.05;;;6.00;99.90;;;;;;4941282;28;20062;-74
2024/01/23 00:16:59;;;;;;;7.40;1.55;;;6.00;99.90;;;;;;4947713;28;20039;-74
2024/01/23 00:19:24;;;;;;;10.02;2.25;;;6.00;99.90;;;;;;4947420;28;20470;-74
2024/01/23 00:21:50;;;;;;;22.38;2.97;;;6.00;99.90;;;;;;4946860;28;20058;-74
2024/01/23 00:24:16;;;;;;;6.57;1.50;;;6.00;99.90;;;;;;4945114;28;20453;-74
2024/01/23 00:26:42;;;;;;;9.15;2.30;;;6.00;99.90;;;;;;4943630;28;20047;-73
2024/01/23 00:29:07;;;;;;;2.25;1.13;;;6.00;99.90;;;;;;4936172;28;20050;-74
2024/01/23 00:31:34;;;;;;;2.50;1.40;;;6.00;99.90;;;;;;4938603;28;20043;-74
2024/01/23 00:34:00;;;;;;;5.32;1.65;;;6.10;99.90;;;;;;4945965;28;20058;-73
2024/01/23 00:36:25;;;;;;;7.13;2.78;;;6.10;99.90;;;;;;4944723;28;20039;-72
2024/01/23 00:38:51;;;;;;;5.18;2.58;;;6.00;99.90;;;;;;4962325;28;20047;-75
2024/01/23 00:41:16;;;;;;;9.20;2.88;;;6.00;99.90;;;;;;4943763;29;20039;-73
2024/01/23 00:43:42;;;;;;;5.03;2.40;;;6.00;99.90;;;;;;4948035;28;20510;-73
2024/01/23 00:46:08;;;;;;;6.55;2.40;;;6.00;99.90;;;;;;4942121;29;20281;-74
2024/01/23 00:48:33;;;;;;;7.72;1.55;;;6.00;99.90;;;;;;4956621;28;20045;-74
2024/01/23 00:50:59;;;;;;;5.70;2.00;;;6.00;99.90;;;;;;4961547;28;20082;-73
2024/01/23 00:53:24;;;;;;;11.02;2.80;;;5.90;99.90;;;;;;4953161;28;20713;-74
2024/01/23 00:55:50;;;;;;;3.90;1.50;;;5.90;99.90;;;;;;4963171;28;20089;-74
2024/01/23 00:58:16;;;;;;;17.35;2.28;;;5.90;99.90;;;;;;4964137;28;20093;-73
2024/01/23 01:00:44;;;;;;;6.20;1.40;;;5.80;99.90;;;;;;4953073;28;20046;-74
2024/01/23 01:03:13;;;;;;;4.28;1.92;;;5.80;99.90;;;;;;4945240;28;20051;-74
2024/01/23 01:05:39;;;;;;;2.58;1.52;;;5.80;99.90;;;;;;4962101;28;20101;-73
2024/01/23 01:08:05;;;;;;;4.15;1.73;;;5.80;99.90;;;;;;4952169;28;20667;-73
2024/01/23 01:10:30;;;;;;;2.83;2.08;;;5.70;99.90;;;;;;4963638;28;20049;-74
2024/01/23 01:12:56;;;;;;;3.20;2.67;;;5.70;99.90;;;;;;4955061;28;20046;-74
2024/01/23 01:15:22;;;;;;;4.20;2.38;;;5.70;99.90;;;;;;4945308;28;20097;-73
2024/01/23 01:17:47;;;;;;;6.32;1.73;;;5.70;99.90;;;;;;4943306;29;20052;-74
2024/01/23 01:20:13;;;;;;;6.18;1.70;;;5.70;99.90;;;;;;4945846;28;20038;-74
2024/01/23 01:22:39;;;;;;;9.23;1.98;;;5.70;99.90;;;;;;4942503;29;20035;-74
2024/01/23 01:25:05;;;;;;;8.43;2.42;;;5.70;99.90;;;;;;4962014;28;20105;-73
2024/01/23 01:27:31;;;;;;;7.53;1.75;;;5.70;99.90;;;;;;4943101;28;20051;-75
2024/01/23 01:29:56;;;;;;;7.30;2.50;;;5.60;99.90;;;;;;4942935;28;20055;-74
2024/01/23 01:32:22;;;;;;;3.05;1.23;;;5.70;99.90;;;;;;4944078;28;20082;-75
2024/01/23 01:34:48;;;;;;;5.60;3.08;;;5.60;99.90;;;;;;4928890;28;20075;-74
2024/01/23 01:37:13;;;;;;;6.20;1.67;;;5.60;99.90;;;;;;4958480;28;20043;-74
2024/01/23 01:39:39;;;;;;;4.13;1.77;;;5.60;99.90;;;;;;4944229;28;21074;-73
2024/01/23 01:42:04;;;;;;;3.35;1.45;;;5.60;99.90;;;;;;4955976;28;20486;-74
2024/01/23 01:44:32;;;;;;;16.50;2.85;;;5.60;99.90;;;;;;4946261;28;20054;-74
2024/01/23 01:46:58;;;;;;;11.43;1.73;;;5.60;99.90;;;;;;4944515;28;20051;-74
2024/01/23 01:49:25;;;;;;;6.15;3.63;;;5.60;99.90;;;;;;4963301;28;20481;-73
2024/01/23 01:51:51;;;;;;;3.95;3.47;;;5.60;99.90;;;;;;4962757;28;20058;-75
2024/01/23 01:54:18;;;;;;;7.60;2.25;;;5.70;99.90;;;;;;4955097;28;20060;-74
2024/01/23 01:56:44;;;;;;;6.28;1.95;;;5.60;99.90;;;;;;4959508;28;20055;-73
2024/01/23 01:59:10;;;;;;;7.72;3.33;;;5.60;99.90;;;;;;4942714;28;20047;-74
2024/01/23 02:01:36;;;;;;;5.47;2.08;;;5.60;99.90;;;;;;4944905;28;20457;-74
2024/01/23 02:04:01;;;;;;;8.35;1.98;;;5.60;99.90;;;;;;4945020;28;20437;-73
2024/01/23 02:06:27;;;;;;;6.57;2.05;;;5.60;99.90;;;;;;4946049;28;20489;-74
2024/01/23 02:08:54;;;;;;;10.18;3.72;;;5.60;99.90;;;;;;4945757;28;20121;-74
2024/01/23 02:11:20;;;;;;;8.20;2.92;;;5.60;99.90;;;;;;5035984;23;20524;-76
2024/01/23 02:13:46;;;;;;;3.85;2.40;;;5.60;99.90;;;;;;4966285;28;20058;-74
2024/01/23 02:16:11;;;;;;;8.43;1.60;;;5.60;99.90;;;;;;4974559;28;20059;-76
2024/01/23 02:18:37;;;;;;;11.48;4.25;;;5.60;99.90;;;;;;4954157;28;20043;-76
2024/01/23 02:21:03;;;;;;;6.10;2.85;;;5.60;99.90;;;;;;4997471;28;20046;-76
2024/01/23 02:23:32;;;;;;;7.05;3.50;;;5.60;99.90;;;;;;4958755;28;20481;-76
2024/01/23 02:25:58;;;;;;;6.85;1.75;;;5.70;99.90;;;;;;4966085;28;20082;-74
2024/01/23 02:28:23;;;;;;;7.05;2.85;;;5.70;99.90;;;;;;5003746;28;20506;-74
2024/01/23 02:30:49;;;;;;;3.28;2.22;;;5.70;99.90;;;;;;4982989;28;20162;-74
2024/01/23 02:33:15;;;;;;;4.88;2.20;;;5.70;99.90;;;;;;4980066;28;20267;-74
2024/01/23 02:35:41;;;;;;;5.00;1.77;;;5.70;99.90;;;;;;4981287;28;20047;-74
2024/01/23 02:38:08;;;;;;;10.15;2.97;;;5.70;99.90;;;;;;4977496;28;20051;-74
2024/01/23 02:40:34;;;;;;;3.13;2.20;;;5.70;99.90;;;;;;4983169;28;20088;-74
2024/01/23 02:43:00;;;;;;;4.07;2.50;;;5.80;99.90;;;;;;4976953;28;20118;-74
2024/01/23 02:45:25;;;;;;;5.03;2.05;;;5.80;99.90;;;;;;4964890;28;20050;-74
2024/01/23 02:47:51;;;;;;;3.75;1.30;;;5.80;99.90;;;;;;4994659;28;20042;-73
2024/01/23 02:50:16;;;;;;;8.98;1.80;;;5.80;99.90;;;;;;4991079;28;20051;-74
2024/01/23 02:52:42;;;;;;;4.43;2.85;;;5.70;99.90;;;;;;4971498;28;20535;-75
2024/01/23 02:55:08;;;;;;;13.82;3.60;;;5.80;99.90;;;;;;4971340;28;20108;-73
2024/01/23 02:57:34;;;;;;;8.00;3.00;;;5.80;99.90;;;;;;4981030;28;20043;-74
2024/01/23 02:59:59;;;;;;;19.33;4.55;;;5.90;99.90;;;;;;4994801;28;20053;-74
2024/01/23 03:02:25;;;;;;;7.10;2.40;;;5.90;99.90;;;;;;4980808;28;20058;-73
2024/01/23 03:04:51;;;;;;;3.65;2.75;;;5.90;99.90;;;;;;4965573;28;20034;-74
2024/01/23 03:07:17;;;;;;;7.07;1.88;;;6.00;99.90;;;;;;4980932;28;20557;-74
2024/01/23 03:09:43;;;;;;;17.77;3.38;;;6.00;99.90;;;;;;4971805;28;20117;-73
2024/01/23 03:12:14;;;;;;;6.13;2.65;;;6.00;99.90;;;;;;4979365;28;20182;-73
2024/01/23 03:14:40;;;;;;;8.90;3.00;;;6.00;99.90;;;;;;4986938;28;20133;-74
2024/01/23 03:17:06;;;;;;;7.47;2.00;;;6.10;99.90;;;;;;4983335;28;20232;-74
2024/01/23 03:19:31;;;;;;;5.60;1.85;;;6.10;99.90;;;;;;4999741;28;20030;-74
2024/01/23 03:21:57;;;;;;;10.48;2.45;;;6.10;99.90;;;;;;4982653;28;20049;-74
2024/01/23 03:24:22;;;;;;;5.28;2.70;;;6.10;99.90;;;;;;4984836;28;20035;-74
2024/01/23 03:26:48;;;;;;;4.85;2.20;;;6.10;99.90;;;;;;4982677;28;20097;-74
2024/01/23 03:29:13;;;;;;;3.22;1.70;;;6.20;99.90;;;;;;4984185;28;20058;-73
2024/01/23 03:31:39;;;;;;;10.32;2.63;;;6.10;99.90;;;;;;4983170;28;20054;-74
2024/01/23 03:34:04;;;;;;;9.50;3.42;;;6.20;99.90;;;;;;4966689;28;20070;-74
2024/01/23 03:36:30;;;;;;;5.78;2.13;;;6.20;99.90;;;;;;4979821;28;20117;-73
2024/01/23 03:38:56;;;;;;;6.72;2.47;;;6.20;99.90;;;;;;4965161;28;20035;-74
2024/01/23 03:41:21;;;;;;;5.50;2.60;;;6.20;99.90;;;;;;4987999;28;20058;-75
2024/01/23 03:43:47;;;;;;;11.00;2.90;;;6.20;99.90;;;;;;4983714;28;20054;-73
2024/01/23 03:46:12;;;;;;;4.85;2.58;;;6.30;99.90;;;;;;4978351;28;20043;-75
2024/01/23 03:48:38;;;;;;;9.95;2.90;;;6.30;99.90;;;;;;4947295;28;20038;-74
2024/01/23 03:51:04;;;;;;;2.05;1.73;;;6.30;99.90;;;;;;4978986;28;20557;-73
2024/01/23 03:53:29;;;;;;;3.38;2.55;;;6.30;99.90;;;;;;4995712;28;20050;-74
2024/01/23 03:55:55;;;;;;;8.02;3.03;;;6.40;99.90;;;;;;4957183;28;20050;-74
2024/01/23 03:58:21;;;;;;;13.13;3.40;;;6.40;99.90;;;;;;4983506;28;20125;-74
2024/01/23 04:00:47;;;;;;;4.50;2.03;;;6.40;99.90;;;;;;4972561;28;20078;-74
2024/01/23 04:03:12;;;;;;;8.02;2.97;;;6.40;99.90;;;;;;4964525;28;20093;-74
2024/01/23 04:05:38;;;;;;;6.75;2.08;;;6.40;99.90;;;;;;4978986;28;20138;-73
2024/01/23 04:08:03;;;;;;;8.07;2.83;;;6.40;99.90;;;;;;4976844;28;20046;-74
2024/01/23 04:10:29;;;;;;;9.98;3.33;;;6.40;99.90;;;;;;4977383;28;20042;-75
2024/01/23 04:12:55;;;;;;;9.73;2.60;;;6.40;99.90;;;;;;4982827;28;20058;-74
2024/01/23 04:15:20;;;;;;;9.90;2.22;;;6.40;99.90;;;;;;4984840;28;20489;-74
2024/01/23 04:17:46;;;;;;;16.67;2.95;;;6.40;99.90;;;;;;4985593;28;20130;-75
2024/01/23 04:20:11;;;;;;;6.50;3.15;;;6.50;99.90;;;;;;4981081;28;20045;-73
2024/01/23 04:22:37;;;;;;;9.27;4.03;;;6.50;99.90;;;;;;4997841;28;20069;-73
2024/01/23 04:25:04;;;;;;;10.23;3.28;;;6.50;99.90;;;;;;4953191;28;20042;-74
2024/01/23 04:27:30;;;;;;;14.00;3.75;;;6.50;99.90;;;;;;4983797;28;20057;-74
2024/01/23 04:29:56;;;;;;;5.95;3.15;;;6.50;99.90;;;;;;4987371;28;20192;-74
2024/01/23 04:32:22;;;;;;;8.38;2.90;;;6.50;99.90;;;;;;4964132;28;20082;-74
2024/01/23 04:34:48;;;;;;;4.00;2.38;;;6.50;99.90;;;;;;4963369;28;20086;-73
2024/01/23 04:37:13;;;;;;;6.60;3.60;;;6.50;99.90;;;;;;4963349;28;20043;-74
2024/01/23 04:39:39;;;;;;;8.75;3.00;;;6.50;99.90;;;;;;4964096;28;20126;-74
2024/01/23 04:42:05;;;;;;;4.93;2.00;;;6.50;99.90;;;;;;4984949;28;20081;-75
2024/01/23 04:44:30;;;;;;;6.05;2.20;;;6.50;99.90;;;;;;4968335;28;20039;-75
2024/01/23 04:46:56;;;;;;;5.53;2.50;;;6.50;99.90;;;;;;4979368;28;20062;-73
2024/01/23 04:49:22;;;;;;;11.57;3.47;;;6.50;99.90;;;;;;4994429;28;20072;-74
2024/01/23 04:51:47;;;;;;;5.80;2.60;;;6.50;99.90;;;;;;4989629;28;20070;-75
2024/01/23 04:54:13;;;;;;;6.75;3.50;;;6.50;99.90;;;;;;4997901;28;20144;-73
2024/01/23 04:56:39;;;;;;;7.20;3.42;;;6.50;99.90;;;;;;4981721;28;20038;-75
2024/01/23 04:59:05;;;;;;;3.75;2.08;;;6.40;99.90;;;;;;4963814;28;20066;-75
2024/01/23 05:01:30;;;;;;;14.43;3.15;;;6.40;99.90;;;;;;4978934;28;20603;-73
2024/01/23 05:03:56;;;;;;;9.35;3.72;;;6.40;99.90;;;;;;4980299;28;20045;-73
2024/01/23 05:06:21;;;;;;;7.90;2.88;;;6.40;99.90;;;;;;4982624;28;20527;-75
2024/01/23 05:08:47;;;;;;;13.63;4.22;;;6.30;99.90;;;;;;4968715;28;20109;-74
2024/01/23 05:11:12;;;;;;;4.78;1.95;;;6.30;99.90;;;;;;4985482;28;20141;-73
2024/01/23 05:13:42;;;;;;;16.52;3.15;;;6.30;99.90;;;;;;4974114;28;20815;-74
2024/01/23 05:16:07;;;;;;;7.10;2.97;;;6.20;99.90;;;;;;4963069;28;20085;-74
2024/01/23 05:18:33;;;;;;;7.70;2.50;;;6.10;99.90;;;;;;4984214;28;20050;-74
2024/01/23 05:20:59;;;;;;;18.45;5.13;;;6.10;99.90;;;;;;4981861;28;20109;-74
2024/01/23 05:23:25;;;;;;;13.50;4.22;;;6.10;99.90;;;;;;4978902;28;20043;-74
2024/01/23 05:25:51;;;;;;;5.50;2.80;;;6.10;99.90;;;;;;4964155;28;20040;-75
2024/01/23 05:28:16;;;;;;;9.20;3.17;;;6.10;99.90;;;;;;4974680;28;20119;-73
2024/01/23 05:30:42;;;;;;;7.72;2.13;;;6.00;99.90;;;;;;4987265;28;20034;-73
2024/01/23 05:33:08;;;;;;;5.90;2.10;;;6.00;99.90;;;;;;4982219;28;20378;-75
2024/01/23 05:35:34;;;;;;;11.95;2.50;;;6.00;99.90;;;;;;4988711;28;20059;-73
2024/01/23 05:37:59;;;;;;;12.02;2.78;;;6.00;99.90;;;;;;4979678;28;20042;-75
2024/01/23 05:40:25;;;;;;;9.82;2.38;;;6.00;99.90;;;;;;4994269;28;20042;-74
2024/01/23 05:42:50;;;;;;;11.02;3.75;;;6.00;99.90;;;;;;4978072;28;20434;-73
2024/01/23 05:45:16;;;;;;;7.80;1.77;;;6.00;99.90;;;;;;4978060;28;20125;-74
2024/01/23 05:47:42;;;;;;;6.60;2.83;;;6.00;99.90;;;;;;4964409;28;20111;-74
2024/01/23 05:50:08;;;;;;;7.45;3.53;;;6.00;99.90;;;;;;4973325;28;20046;-71
2024/01/23 05:52:33;;;;;;;8.68;3.15;;;6.00;99.90;;;;;;4946038;28;20039;-74
2024/01/23 05:54:59;;;;;;;4.55;2.20;;;6.00;99.90;;;;;;4978946;28;20042;-74
2024/01/23 05:57:26;;;;;;;12.70;3.58;;;6.00;99.90;;;;;;4959963;28;20049;-74
2024/01/23 05:59:51;;;;;;;5.97;2.30;;;6.00;99.90;;;;;;4967033;28;20121;-73
2024/01/23 06:02:17;;;;;;;5.43;2.58;;;6.00;99.90;;;;;;4985162;28;20555;-73
2024/01/23 06:04:42;;;;;;;11.82;4.38;;;6.00;99.90;;;;;;4983678;28;20090;-74
2024/01/23 06:07:08;;;;;;;10.88;4.28;;;5.90;99.90;;;;;;4979144;28;20054;-74
2024/01/23 06:09:34;;;;;;;10.23;3.38;;;5.90;99.90;;;;;;4982660;28;20497;-74
2024/01/23 06:11:59;;;;;;;10.55;3.30;;;5.90;99.90;;;;;;4982158;28;20053;-75
2024/01/23 06:14:25;;;;;;;10.05;3.67;;;5.90;99.90;;;;;;4980653;28;20039;-75
2024/01/23 06:16:51;;;;;;;8.80;2.05;;;5.90;99.90;;;;;;4983370;28;20053;-76
2024/01/23 06:19:18;;;;;;;8.65;2.38;;;5.80;99.90;;;;;;4948975;28;20176;-77
2024/01/23 06:21:43;;;;;;;8.35;2.33;;;5.80;99.90;;;;;;4973825;28;20058;-75
2024/01/23 06:24:09;;;;;;;12.48;3.53;;;5.80;99.90;;;;;;4984764;28;20046;-77
2024/01/23 06:26:35;;;;;;;9.52;3.95;;;5.80;99.90;;;;;;4982664;28;20034;-76
2024/01/23 06:29:02;;;;;;;7.45;2.72;;;5.80;99.90;;;;;;4965819;28;20048;-78
2024/01/23 06:31:27;;;;;;;15.48;4.80;;;5.80;99.90;;;;;;4967131;28;20049;-77
2024/01/23 06:33:54;;;;;;;13.93;3.40;;;5.80;99.90;;;;;;4983252;28;20405;-78
2024/01/23 06:36:20;;;;;;;9.13;3.45;;;5.70;99.90;;;;;;4966118;28;20497;-77
2024/01/23 06:38:45;;;;;;;9.30;3.15;;;5.70;99.90;;;;;;4965954;28;20050;-78
2024/01/23 06:41:11;;;;;;;8.35;3.30;;;5.70;99.90;;;;;;4987544;28;20038;-76
2024/01/23 06:43:36;;;;;;;7.45;3.50;;;5.70;99.90;;;;;;4985068;28;20389;-78
2024/01/23 06:46:02;;;;;;;7.32;4.03;;;5.70;99.90;;;;;;4968600;28;20104;-76
2024/01/23 06:48:29;;;;;;;8.43;3.10;;;5.70;99.90;;;;;;4990588;28;20042;-77
2024/01/23 06:50:55;;;;;;;11.73;4.72;;;5.60;99.90;;;;;;4980780;28;20050;-78
2024/01/23 06:53:21;;;;;;;15.35;4.05;;;5.60;99.90;;;;;;4945939;28;20053;-75
2024/01/23 06:55:47;;;;;;;10.32;4.88;;;5.60;99.90;;;;;;4968362;28;20140;-76
2024/01/23 06:58:13;;;;;;;8.13;3.65;;;5.60;99.90;;;;;;4968884;28;20049;-76
2024/01/23 07:00:39;;;;;;;18.55;3.22;;;5.60;99.90;;;;;;4984326;28;20169;-78
2024/01/23 07:03:06;;;;;;;9.45;4.25;;;5.60;99.90;;;;;;4966341;28;20049;-78
2024/01/23 07:05:32;;;;;;;9.93;5.63;;;5.60;99.90;;;;;;4967469;28;20124;-77
2024/01/23 07:07:57;;;;;;;5.63;4.03;;;5.50;99.90;;;;;;4965902;28;20082;-75
2024/01/23 07:10:23;;;;;;;13.55;2.95;;;5.50;99.90;;;;;;4964366;28;20058;-77
2024/01/23 07:12:48;;;;;;;6.20;3.33;;;5.50;99.90;;;;;;4964193;28;20051;-75
2024/01/23 07:15:14;;;;;;;6.45;2.63;;;5.40;99.90;;;;;;4962955;28;20039;-75
2024/01/23 07:17:40;;;;;;;8.73;3.28;;;5.40;99.90;;;;;;4962947;28;20054;-77
2024/01/23 07:20:09;;;;;;;8.52;2.97;;;5.40;99.90;;;;;;4961498;28;20694;-77
2024/01/23 07:22:34;;;;;;;6.07;3.65;;;5.40;99.90;;;;;;4967563;28;20051;-76
2024/01/23 07:25:03;;;;;;;14.38;3.65;;;5.40;99.90;;;;;;4963450;28;20405;-77
2024/01/23 07:27:29;;;;;;;7.80;2.88;;;5.40;99.90;;;;;;4963906;28;20057;-77
2024/01/23 07:29:55;;;;;;;9.50;2.83;;;5.40;99.90;;;;;;4977307;28;20086;-76
2024/01/23 07:32:21;;;;;;;8.75;3.35;;;5.40;99.90;;;;;;4962707;28;20046;-78
2024/01/23 07:34:47;;;;;;;18.23;4.53;;;5.40;99.90;;;;;;4964233;28;20507;-78
2024/01/23 07:37:13;;;;;;;14.65;3.60;;;5.40;99.90;;;;;;4961581;28;20109;-76
2024/01/23 07:39:38;;;;;;;14.73;5.07;;;5.40;99.90;;;;;;4964088;28;20046;-75
2024/01/23 07:42:04;;;;;;;14.77;4.40;;;5.40;99.90;;;;;;4961621;28;20045;-77
2024/01/23 07:44:32;;;;;;;5.47;2.50;;;5.30;99.90;;;;;;4962621;28;20035;-76
2024/01/23 07:46:58;;;;;;;8.05;2.97;;;5.30;99.90;;;;;;4963561;28;20109;-77
2024/01/23 07:49:24;;;;;;;6.20;3.40;;;5.30;99.90;;;;;;4962137;28;20049;-78
2024/01/23 07:51:50;;;;;;;7.45;3.33;;;5.30;99.90;;;;;;4961717;28;20137;-77
2024/01/23 07:54:16;;;;;;;4.30;2.08;;;5.30;99.90;;;;;;4958353;28;20097;-77
2024/01/23 07:56:42;;;;;;;9.45;3.95;;;5.30;99.90;;;;;;4952635;28;20393;-77
2024/01/23 07:59:07;;;;;;;10.10;4.18;;;5.30;99.90;;;;;;4960928;28;20054;-78
2024/01/23 08:01:33;;;;;;;12.02;4.55;;;5.30;99.90;;;;;;4962653;28;20043;-76
2024/01/23 08:03:59;;;;;;;19.58;5.00;;;5.30;99.90;;;;;;4961830;28;20117;-77
2024/01/23 08:06:25;;;;;;;4.93;4.07;;;5.30;99.90;;;;;;4994282;28;20042;-75
2024/01/23 08:08:51;;;;;;;10.43;3.15;;;5.30;99.90;;;;;;4993730;28;20199;-76
2024/01/23 08:11:17;;;;;;;12.68;3.97;;;5.30;99.90;;;;;;4974917;28;20129;-77
2024/01/23 08:13:43;;;;;;;18.27;3.58;;;5.30;99.90;;;;;;4948480;28;20055;-77
2024/01/23 08:16:09;;;;;;;12.85;3.47;;;5.30;99.90;;;;;;4976738;28;20038;-77
2024/01/23 08:18:36;;;;;;;6.50;3.55;;;5.30;99.90;;;;;;4961291;28;20430;-76
2024/01/23 08:21:02;;;;;;;12.18;4.03;;;5.30;99.90;;;;;;4962828;28;20089;-78
2024/01/23 08:23:28;;;;;;;6.25;2.72;;;5.30;99.90;;;;;;4945465;28;20038;-77
2024/01/23 08:25:54;;;;;;;8.40;3.33;;;5.30;99.90;;;;;;4962259;28;20464;-77
2024/01/23 08:28:20;;;;;;;8.38;2.95;;;5.30;99.90;;;;;;4945727;28;20074;-76
2024/01/23 08:30:45;;;;;;;16.08;3.13;;;5.30;99.90;;;;;;4962570;28;20047;-77
2024/01/23 08:33:18;;;;;;;8.25;3.42;;;5.30;99.90;;;;;;4960316;28;20051;-78
2024/01/23 08:35:44;;;;;;;11.55;2.60;;;5.30;99.90;;;;;;4962340;28;20051;-75
2024/01/23 08:38:10;;;;;;;5.90;3.50;;;5.30;99.90;;;;;;4962216;28;20457;-76
2024/01/23 08:40:35;;;;;;;5.60;3.25;;;5.30;99.90;;;;;;4977755;28;20047;-76
2024/01/23 08:43:01;;;;;;;13.88;4.45;;;5.30;99.90;;;;;;4976570;28;20379;-78
2024/01/23 08:45:27;;;;;;;8.23;3.58;;;5.30;99.90;;;;;;4944558;28;20038;-77
2024/01/23 08:47:52;;;;;;;11.77;4.60;;;5.30;99.90;;;;;;4977605;28;20039;-76
2024/01/23 08:50:18;;;;;;;6.53;3.08;;;5.30;99.90;;;;;;4978941;28;20083;-75
2024/01/23 08:52:45;;;;;;;11.02;2.80;;;5.30;99.90;;;;;;4964196;28;20501;-76
2024/01/23 08:55:11;;;;;;;7.55;4.32;;;5.30;99.90;;;;;;4981793;28;20536;-76
2024/01/23 08:57:36;;;;;;;11.05;5.43;;;5.30;99.90;;;;;;4964223;28;20074;-77
2024/01/23 09:00:04;;;;;;;12.88;3.50;;;5.30;99.90;;;;;;4977370;28;20321;-76
2024/01/23 09:02:29;;;;;;;10.55;3.58;;;5.30;99.90;;;;;;4977714;28;20440;-76
2024/01/23 09:04:55;;;;;;;5.95;2.72;;;5.30;99.90;;;;;;4973526;28;20042;-76
2024/01/23 09:07:22;;;;;;;7.35;2.67;;;5.30;99.90;;;;;;4963185;28;20052;-74
2024/01/23 09:09:48;;;;;;;3.25;2.50;;;5.30;99.90;;;;;;4962769;28;20046;-76
2024/01/23 09:12:16;;;;;;;22.08;5.97;;;5.40;99.90;;;;;;4962290;28;20314;-75
2024/01/23 09:14:44;;;;;;;7.38;3.17;;;5.40;99.90;;;;;;4962244;28;20039;-76
2024/01/23 09:17:11;;;;;;;8.32;3.25;;;5.40;99.90;;;;;;4962566;28;20517;-75
2024/01/23 09:19:36;;;;;;;5.80;3.20;;;5.40;99.90;;;;;;4981877;28;20126;-76
2024/01/23 09:22:04;;;;;;;24.67;4.97;;;5.40;99.90;;;;;;4962941;28;20090;-75
2024/01/23 09:24:30;;;;;;;26.48;4.88;;;5.50;99.90;;;;;;4980835;28;20424;-76
2024/01/23 09:26:59;;;;;;;8.68;3.25;;;5.50;99.90;;;;;;4980845;28;20046;-75
2024/01/23 09:29:26;;;;;;;12.07;2.97;;;5.60;99.90;;;;;;4962992;28;20125;-75
2024/01/23 09:31:52;;;;;;;9.98;4.18;;;5.60;99.90;;;;;;4984214;28;20105;-76
2024/01/23 09:34:17;;;;;;;12.65;4.28;;;5.70;99.90;;;;;;4985682;28;20046;-76
2024/01/23 09:36:43;;;;;;;9.20;3.50;;;5.70;99.90;;;;;;4967318;28;20042;-75
2024/01/23 09:39:13;;;;;;;9.38;4.50;;;5.70;99.90;;;;;;4967426;28;20440;-76
2024/01/23 09:41:44;;;;;;;6.75;2.15;;;5.70;99.90;;;;;;4967227;28;20057;-75
2024/01/23 09:44:11;;;;;;;9.43;3.63;;;5.80;99.90;;;;;;4983652;28;20387;-75
2024/01/23 09:46:37;;;;;;;11.77;4.90;;;5.80;99.90;;;;;;4967636;28;20476;-75
2024/01/23 09:49:03;;;;;;;43.70;3.50;;;5.80;99.90;;;;;;4984224;28;20298;-76
2024/01/23 09:51:29;;;;;;;6.50;3.35;;;5.80;99.90;;;;;;4967708;28;20038;-76
2024/01/23 09:53:55;;;;;;;7.07;3.47;;;5.80;99.90;;;;;;4966360;28;20602;-75
2024/01/23 09:56:22;;;;;;;13.65;3.72;;;5.90;99.90;;;;;;4967285;28;20042;-77
2024/01/23 09:58:49;;;;;;;12.68;2.70;;;5.90;99.90;;;;;;4966957;28;20042;-75
2024/01/23 10:01:17;;;;;;;17.08;4.40;;;5.90;99.90;;;;;;4984660;28;20077;-76
2024/01/23 10:03:48;;;;;;;12.05;3.50;;;6.00;99.90;;;;;;4966917;28;20395;-75
2024/01/23 10:06:14;;;;;;;8.70;2.85;;;6.00;99.90;;;;;;4984502;28;20100;-76
2024/01/23 10:08:40;;;;;;;11.30;2.40;;;6.00;99.90;;;;;;4998918;28;20176;-76
2024/01/23 10:11:05;;;;;;;5.90;4.18;;;6.00;99.90;;;;;;4983658;28;20054;-76
2024/01/23 10:13:31;;;;;;;7.55;2.05;;;6.10;99.90;;;;;;4998506;28;20058;-76
2024/01/23 10:15:57;;;;;;;11.50;3.10;;;6.10;99.90;;;;;;4972069;28;20397;-78
2024/01/23 10:18:25;;;;;;;8.90;3.17;;;6.10;99.90;;;;;;4966479;28;20089;-76
2024/01/23 10:20:51;;;;;;;9.77;2.65;;;6.10;99.90;;;;;;4966284;28;20042;-78
2024/01/23 10:23:17;;;;;;;15.35;4.22;;;6.20;99.90;;;;;;4984465;28;20061;-74
2024/01/23 10:25:43;;;;;;;20.73;3.28;;;6.20;99.90;;;;;;4967357;28;20455;-77
2024/01/23 10:28:10;;;;;;;9.50;3.47;;;6.20;99.90;;;;;;4983999;28;20042;-76
2024/01/23 10:30:43;;;;;;;15.07;3.28;;;6.20;99.90;;;;;;4982732;28;20400;-77
2024/01/23 10:33:10;;;;;;;13.60;2.58;;;6.30;99.90;;;;;;4965988;28;20054;-77
2024/01/23 10:35:36;;;;;;;22.70;4.53;;;6.30;99.90;;;;;;4966972;28;20046;-76
2024/01/23 10:38:03;;;;;;;26.33;4.47;;;6.30;99.90;;;;;;4983763;28;20044;-77
2024/01/23 10:40:29;;;;;;;7.88;2.70;;;6.30;99.90;;;;;;4991462;28;20042;-77
2024/01/23 10:43:01;;;;;;;12.85;3.50;;;6.30;99.90;;;;;;4983151;28;20132;-76
2024/01/23 10:45:29;;;;;;;16.90;3.38;;;6.40;99.90;;;;;;4966020;28;20043;-77
2024/01/23 10:47:57;;;;;;;5.75;2.17;;;6.40;99.90;;;;;;4983933;28;20046;-77
2024/01/23 10:50:22;;;;;;;4.47;2.22;;;6.50;99.90;;;;;;4963394;28;20550;-77
2024/01/23 10:52:49;;;;;;;13.55;2.95;;;6.50;99.90;;;;;;4981116;28;20050;-77
2024/01/23 10:55:19;;;;;;;13.10;3.10;;;6.50;99.90;;;;;;4976578;28;20596;-75
2024/01/23 10:57:46;;;;;;;9.18;2.35;;;6.60;99.90;;;;;;4990479;28;20105;-77
2024/01/23 11:00:17;;;;;;;2.97;1.83;;;6.60;99.90;;;;;;4972953;28;20271;-76
2024/01/23 11:02:48;;;;;;;4.82;2.83;;;6.60;99.90;;;;;;4966263;28;20054;-76
2024/01/23 11:05:14;;;;;;;9.52;3.35;;;6.70;99.90;;;;;;4965915;28;20092;-76
2024/01/23 11:07:43;;;;;;;5.30;2.63;;;6.70;99.90;;;;;;4967984;28;20290;-76
2024/01/23 11:10:22;;;;;;;12.48;4.43;;;6.70;99.90;;;;;;4972554;28;20412;-77
2024/01/23 11:13:02;;;;;;;4.18;1.88;;;6.70;99.90;;;;;;4982659;28;20062;-75
2024/01/23 11:15:28;;;;;;;3.03;2.47;;;6.80;99.90;;;;;;4948818;28;20540;-75
2024/01/23 11:17:59;;;;;;;5.78;2.50;;;6.70;99.90;;;;;;4983279;28;20042;-75
2024/01/23 11:20:25;;;;;;;12.23;3.97;;;6.80;99.90;;;;;;4998199;28;20038;-76
2024/01/23 11:22:50;;;;;;;5.68;3.45;;;6.80;99.90;;;;;;4991679;28;20054;-76
2024/01/23 11:25:17;;;;;;;5.78;2.28;;;6.80;99.90;;;;;;4969178;28;20129;-72
2024/01/23 11:27:47;;;;;;;7.63;2.50;;;6.80;99.90;;;;;;4966563;28;20046;-75
2024/01/23 11:30:13;;;;;;;7.57;3.13;;;6.70;99.90;;;;;;4966224;28;20113;-77
2024/01/23 11:32:39;;;;;;;6.50;2.70;;;6.80;99.90;;;;;;4969361;28;20054;-75
2024/01/23 11:35:11;;;;;;;8.73;2.50;;;6.80;99.90;;;;;;4964483;28;20465;-76
2024/01/23 11:37:47;;;;;;;7.05;3.10;;;6.80;99.90;;;;;;4976527;28;20096;-73
2024/01/23 11:40:33;;;;;;;7.72;1.98;;;6.80;99.90;;;;;;4966587;28;20646;-79
2024/01/23 11:43:02;;;;;;;13.50;1.92;;;6.80;99.90;;;;;;4977504;28;20085;-74
2024/01/23 11:45:29;;;;;;;7.88;3.40;;;6.90;99.90;;;;;;4964556;28;20038;-73
2024/01/23 11:48:00;;;;;;;3.92;2.38;;;6.90;99.90;;;;;;4982051;28;20386;-75
2024/01/23 11:50:28;;;;;;;5.68;2.03;;;6.90;99.90;;;;;;4983583;28;20034;-77
2024/01/23 11:52:56;;;;;;;5.57;3.30;;;7.00;99.90;;;;;;4965578;28;20105;-77
2024/01/23 11:55:23;;;;;;;4.53;2.28;;;6.90;99.90;;;;;;4982717;28;20050;-76
2024/01/23 11:57:57;;;;;;;9.05;3.63;;;6.90;99.90;;;;;;4949792;28;20038;-76
2024/01/23 12:00:23;;;;;;;11.00;3.70;;;7.00;99.90;;;;;;4977331;28;20039;-76
2024/01/23 12:02:49;;;;;;;11.57;4.10;;;7.00;99.90;;;;;;4967075;28;20046;-75
2024/01/23 12:05:16;;;;;;;10.73;4.03;;;7.00;99.90;;;;;;4965737;28;20189;-76
2024/01/23 12:07:42;;;;;;;5.72;2.28;;;7.00;99.90;;;;;;4971957;28;20034;-75
2024/01/23 12:10:17;;;;;;;11.30;2.28;;;7.00;99.90;;;;;;4982341;28;20042;-76
2024/01/23 12:12:43;;;;;;;5.90;1.55;;;7.00;99.90;;;;;;4983531;28;20062;-75
2024/01/23 12:15:09;;;;;;;10.40;2.28;;;7.00;99.90;;;;;;4981179;28;20038;-76
2024/01/23 12:17:36;;;;;;;13.45;3.50;;;7.00;99.90;;;;;;4966318;28;20133;-77
2024/01/23 12:20:09;;;;;;;8.35;3.92;;;7.00;99.90;;;;;;4981101;28;20047;-76
2024/01/23 12:22:38;;;;;;;6.00;1.83;;;7.00;99.90;;;;;;4970553;28;20057;-76
2024/01/23 12:25:09;;;;;;;5.80;3.05;;;7.00;99.90;;;;;;4965673;28;20046;-75
2024/01/23 12:27:34;;;;;;;4.57;1.65;;;7.10;99.90;;;;;;4983467;28;20126;-75
2024/01/23 12:30:01;;;;;;;12.48;2.03;;;7.10;99.90;;;;;;4960861;28;20129;-78
2024/01/23 12:32:30;;;;;;;4.80;2.30;;;7.10;99.90;;;;;;4976915;28;20081;-75
2024/01/23 12:34:56;;;;;;;6.35;2.70;;;7.10;99.90;;;;;;4949745;28;20046;-78
2024/01/23 12:37:31;;;;;;;8.48;3.40;;;7.10;99.90;;;;;;4948796;28;20042;-74
2024/01/23 12:40:05;;;;;;;14.63;2.78;;;7.10;99.90;;;;;;4929192;28;20138;-75
2024/01/23 12:42:32;;;;;;;6.47;2.00;;;7.20;99.90;;;;;;4968167;28;20042;-76
2024/01/23 12:44:57;;;;;;;5.20;2.78;;;7.20;99.90;;;;;;4974218;28;20046;-74
2024/01/23 12:47:23;;;;;;;7.95;2.55;;;7.20;99.90;;;;;;4986817;28;20046;-76
2024/01/23 12:49:49;;;;;;;5.38;1.88;;;7.20;99.90;;;;;;4951945;28;20053;-76